sensor_id;sensor_type;location;lat;lon;timestamp;temperature;humidity
56240;DHT22;42154;51.992;5.896;2022-07-30T00:00:53;17.00;99.90
56240;DHT22;42154;51.992;5.896;2022-07-30T00:03:19;16.90;99.90
56240;DHT22;42154;51.992;5.896;2022-07-30T00:05:45;16.90;99.90
56240;DHT22;42154;51.992;5.896;2022-07-30T00:08:10;16.90;99.90
56240;DHT22;42154;51.992;5.896;2022-07-30T00:10:36;16.90;99.90
56240;DHT22;42154;51.992;5.896;2022-07-30T00:13:01;16.90;99.90
56240;DHT22;42154;51.992;5.896;2022-07-30T00:15:27;16.90;99.90
56240;DHT22;42154;51.992;5.896;2022-07-30T00:17:52;16.90;99.90
56240;DHT22;42154;51.992;5.896;2022-07-30T00:20:18;16.90;99.90
56240;DHT22;42154;51.992;5.896;2022-07-30T00:22:44;16.90;99.90
56240;DHT22;42154;51.992;5.896;2022-07-30T00:25:09;16.90;99.90
56240;DHT22;42154;51.992;5.896;2022-07-30T00:27:35;16.80;99.90
56240;DHT22;42154;51.992;5.896;2022-07-30T00:30:02;16.80;99.90
56240;DHT22;42154;51.992;5.896;2022-07-30T00:32:27;16.80;99.90
56240;DHT22;42154;51.992;5.896;2022-07-30T00:34:53;16.80;99.90
56240;DHT22;42154;51.992;5.896;2022-07-30T00:37:19;16.80;99.90
56240;DHT22;42154;51.992;5.896;2022-07-30T00:39:44;16.80;99.90
56240;DHT22;42154;51.992;5.896;2022-07-30T00:42:10;16.70;99.90
56240;DHT22;42154;51.992;5.896;2022-07-30T00:44:35;16.70;99.90
56240;DHT22;42154;51.992;5.896;2022-07-30T00:47:01;16.70;99.90
56240;DHT22;42154;51.992;5.896;2022-07-30T00:49:27;16.70;99.90
56240;DHT22;42154;51.992;5.896;2022-07-30T00:51:53;16.60;99.90
56240;DHT22;42154;51.992;5.896;2022-07-30T00:54:18;16.60;99.90
56240;DHT22;42154;51.992;5.896;2022-07-30T00:56:45;16.60;99.90
56240;DHT22;42154;51.992;5.896;2022-07-30T00:59:12;16.60;99.90
56240;DHT22;42154;51.992;5.896;2022-07-30T01:01:38;16.60;99.90
56240;DHT22;42154;51.992;5.896;2022-07-30T01:04:04;16.60;99.90
56240;DHT22;42154;51.992;5.896;2022-07-30T01:06:32;16.60;99.90
56240;DHT22;42154;51.992;5.896;2022-07-30T01:08:58;16.60;99.90
56240;DHT22;42154;51.992;5.896;2022-07-30T01:11:26;16.60;99.90
56240;DHT22;42154;51.992;5.896;2022-07-30T01:13:52;16.60;99.90
56240;DHT22;42154;51.992;5.896;2022-07-30T01:16:18;16.60;99.90
56240;DHT22;42154;51.992;5.896;2022-07-30T01:18:44;16.50;99.90
56240;DHT22;42154;51.992;5.896;2022-07-30T01:21:31;16.60;99.90
56240;DHT22;42154;51.992;5.896;2022-07-30T01:24:00;16.50;99.90
56240;DHT22;42154;51.992;5.896;2022-07-30T01:26:32;16.50;99.90
56240;DHT22;42154;51.992;5.896;2022-07-30T01:28:58;16.50;99.90
56240;DHT22;42154;51.992;5.896;2022-07-30T01:31:25;16.50;99.90
56240;DHT22;42154;51.992;5.896;2022-07-30T01:33:51;16.50;99.90
56240;DHT22;42154;51.992;5.896;2022-07-30T01:36:19;16.50;99.90
56240;DHT22;42154;51.992;5.896;2022-07-30T01:38:46;16.40;99.90
56240;DHT22;42154;51.992;5.896;2022-07-30T01:41:13;16.40;99.90
56240;DHT22;42154;51.992;5.896;2022-07-30T01:43:39;16.40;99.90
56240;DHT22;42154;51.992;5.896;2022-07-30T01:46:05;16.40;99.90
56240;DHT22;42154;51.992;5.896;2022-07-30T01:48:34;16.30;99.90
56240;DHT22;42154;51.992;5.896;2022-07-30T01:51:01;16.30;99.90
56240;DHT22;42154;51.992;5.896;2022-07-30T01:53:29;16.30;99.90
56240;DHT22;42154;51.992;5.896;2022-07-30T01:55:56;16.30;99.90
56240;DHT22;42154;51.992;5.896;2022-07-30T01:58:24;16.40;99.90
56240;DHT22;42154;51.992;5.896;2022-07-30T02:00:53;16.40;99.90
56240;DHT22;42154;51.992;5.896;2022-07-30T02:03:20;16.40;99.90
56240;DHT22;42154;51.992;5.896;2022-07-30T02:05:49;16.40;99.90
56240;DHT22;42154;51.992;5.896;2022-07-30T02:09:00;16.50;99.90
56240;DHT22;42154;51.992;5.896;2022-07-30T02:11:09;16.50;99.90
56240;DHT22;42154;51.992;5.896;2022-07-30T02:13:49;16.40;99.90
56240;DHT22;42154;51.992;5.896;2022-07-30T02:16:17;16.50;99.90
56240;DHT22;42154;51.992;5.896;2022-07-30T02:18:49;16.50;99.90
56240;DHT22;42154;51.992;5.896;2022-07-30T02:21:21;16.50;99.90
56240;DHT22;42154;51.992;5.896;2022-07-30T02:23:47;16.50;99.90
56240;DHT22;42154;51.992;5.896;2022-07-30T02:26:16;16.50;99.90
56240;DHT22;42154;51.992;5.896;2022-07-30T02:28:43;16.60;99.90
56240;DHT22;42154;51.992;5.896;2022-07-30T02:31:09;16.60;99.90
56240;DHT22;42154;51.992;5.896;2022-07-30T02:33:36;16.60;99.90
56240;DHT22;42154;51.992;5.896;2022-07-30T02:36:03;16.60;99.90
56240;DHT22;42154;51.992;5.896;2022-07-30T02:38:29;16.60;99.90
56240;DHT22;42154;51.992;5.896;2022-07-30T02:40:56;16.60;99.90
56240;DHT22;42154;51.992;5.896;2022-07-30T02:43:24;16.70;99.90
56240;DHT22;42154;51.992;5.896;2022-07-30T02:45:50;16.60;99.90
56240;DHT22;42154;51.992;5.896;2022-07-30T02:48:19;16.60;99.90
56240;DHT22;42154;51.992;5.896;2022-07-30T02:50:45;16.60;99.90
56240;DHT22;42154;51.992;5.896;2022-07-30T02:53:12;16.60;99.90
56240;DHT22;42154;51.992;5.896;2022-07-30T02:55:39;16.60;99.90
56240;DHT22;42154;51.992;5.896;2022-07-30T02:58:05;16.60;99.90
56240;DHT22;42154;51.992;5.896;2022-07-30T03:00:32;16.60;99.90
56240;DHT22;42154;51.992;5.896;2022-07-30T03:02:58;16.50;99.90
56240;DHT22;42154;51.992;5.896;2022-07-30T03:05:25;16.50;99.90
56240;DHT22;42154;51.992;5.896;2022-07-30T03:07:57;16.50;99.90
56240;DHT22;42154;51.992;5.896;2022-07-30T03:10:23;16.50;99.90
56240;DHT22;42154;51.992;5.896;2022-07-30T03:12:49;16.50;99.90
56240;DHT22;42154;51.992;5.896;2022-07-30T03:15:15;16.50;99.90
56240;DHT22;42154;51.992;5.896;2022-07-30T03:17:44;16.50;99.90
56240;DHT22;42154;51.992;5.896;2022-07-30T03:20:11;16.50;99.90
56240;DHT22;42154;51.992;5.896;2022-07-30T03:22:41;16.40;99.90
56240;DHT22;42154;51.992;5.896;2022-07-30T03:25:08;16.50;99.90
56240;DHT22;42154;51.992;5.896;2022-07-30T03:27:35;16.50;99.90
56240;DHT22;42154;51.992;5.896;2022-07-30T03:30:01;16.50;99.90
56240;DHT22;42154;51.992;5.896;2022-07-30T03:32:28;16.50;99.90
56240;DHT22;42154;51.992;5.896;2022-07-30T03:34:54;16.50;99.90
56240;DHT22;42154;51.992;5.896;2022-07-30T03:37:20;16.50;99.90
56240;DHT22;42154;51.992;5.896;2022-07-30T03:39:46;16.50;99.90
56240;DHT22;42154;51.992;5.896;2022-07-30T03:42:12;16.50;99.90
56240;DHT22;42154;51.992;5.896;2022-07-30T03:44:38;16.50;99.90
56240;DHT22;42154;51.992;5.896;2022-07-30T03:47:05;16.40;99.90
56240;DHT22;42154;51.992;5.896;2022-07-30T03:49:37;16.30;99.90
56240;DHT22;42154;51.992;5.896;2022-07-30T03:52:03;16.40;99.90
56240;DHT22;42154;51.992;5.896;2022-07-30T03:54:30;16.40;99.90
56240;DHT22;42154;51.992;5.896;2022-07-30T03:57:17;16.40;99.90
56240;DHT22;42154;51.992;5.896;2022-07-30T03:59:43;16.40;99.90
56240;DHT22;42154;51.992;5.896;2022-07-30T04:02:10;16.40;99.90
56240;DHT22;42154;51.992;5.896;2022-07-30T04:04:55;16.40;99.90
56240;DHT22;42154;51.992;5.896;2022-07-30T04:07:22;16.40;99.90
56240;DHT22;42154;51.992;5.896;2022-07-30T04:09:47;16.40;99.90
56240;DHT22;42154;51.992;5.896;2022-07-30T04:12:29;16.40;99.90
56240;DHT22;42154;51.992;5.896;2022-07-30T04:14:54;16.30;99.90
56240;DHT22;42154;51.992;5.896;2022-07-30T04:17:26;16.40;99.90
56240;DHT22;42154;51.992;5.896;2022-07-30T04:19:55;16.30;99.90
56240;DHT22;42154;51.992;5.896;2022-07-30T04:22:22;16.30;99.90
56240;DHT22;42154;51.992;5.896;2022-07-30T04:24:51;16.40;99.90
56240;DHT22;42154;51.992;5.896;2022-07-30T04:27:17;16.60;99.90
56240;DHT22;42154;51.992;5.896;2022-07-30T04:29:43;16.70;99.90
56240;DHT22;42154;51.992;5.896;2022-07-30T04:32:09;16.90;99.90
56240;DHT22;42154;51.992;5.896;2022-07-30T04:35:00;17.30;99.90
56240;DHT22;42154;51.992;5.896;2022-07-30T04:37:46;17.70;99.90
56240;DHT22;42154;51.992;5.896;2022-07-30T04:40:12;18.10;99.90
56240;DHT22;42154;51.992;5.896;2022-07-30T04:42:38;18.30;99.90
56240;DHT22;42154;51.992;5.896;2022-07-30T04:45:08;18.50;99.90
56240;DHT22;42154;51.992;5.896;2022-07-30T04:47:46;18.80;99.90
56240;DHT22;42154;51.992;5.896;2022-07-30T04:50:22;19.20;99.90
56240;DHT22;42154;51.992;5.896;2022-07-30T04:52:49;19.50;99.50
56240;DHT22;42154;51.992;5.896;2022-07-30T04:55:21;19.80;99.20
56240;DHT22;42154;51.992;5.896;2022-07-30T04:57:50;19.80;98.40
56240;DHT22;42154;51.992;5.896;2022-07-30T05:00:16;19.60;98.40
56240;DHT22;42154;51.992;5.896;2022-07-30T05:02:42;19.30;98.70
56240;DHT22;42154;51.992;5.896;2022-07-30T05:05:12;19.00;99.10
56240;DHT22;42154;51.992;5.896;2022-07-30T05:07:38;18.70;99.50
56240;DHT22;42154;51.992;5.896;2022-07-30T05:10:06;18.50;99.90
56240;DHT22;42154;51.992;5.896;2022-07-30T05:12:32;18.30;99.90
56240;DHT22;42154;51.992;5.896;2022-07-30T05:14:59;18.10;99.90
56240;DHT22;42154;51.992;5.896;2022-07-30T05:17:25;18.00;99.90
56240;DHT22;42154;51.992;5.896;2022-07-30T05:19:51;17.90;99.90
56240;DHT22;42154;51.992;5.896;2022-07-30T05:22:16;17.90;99.90
56240;DHT22;42154;51.992;5.896;2022-07-30T05:24:43;17.80;99.90
56240;DHT22;42154;51.992;5.896;2022-07-30T05:27:09;17.80;99.90
56240;DHT22;42154;51.992;5.896;2022-07-30T05:29:34;17.80;99.90
56240;DHT22;42154;51.992;5.896;2022-07-30T05:32:09;17.80;99.90
56240;DHT22;42154;51.992;5.896;2022-07-30T05:34:36;17.70;99.90
56240;DHT22;42154;51.992;5.896;2022-07-30T05:37:02;17.70;99.90
56240;DHT22;42154;51.992;5.896;2022-07-30T05:39:28;17.70;99.90
56240;DHT22;42154;51.992;5.896;2022-07-30T05:42:32;17.70;99.90
56240;DHT22;42154;51.992;5.896;2022-07-30T05:44:57;17.70;99.90
56240;DHT22;42154;51.992;5.896;2022-07-30T05:47:25;17.70;99.90
56240;DHT22;42154;51.992;5.896;2022-07-30T05:49:51;17.70;99.90
56240;DHT22;42154;51.992;5.896;2022-07-30T05:52:17;17.70;99.90
56240;DHT22;42154;51.992;5.896;2022-07-30T05:54:43;17.70;99.90
56240;DHT22;42154;51.992;5.896;2022-07-30T05:57:27;17.80;99.90
56240;DHT22;42154;51.992;5.896;2022-07-30T05:59:53;17.80;99.90
56240;DHT22;42154;51.992;5.896;2022-07-30T06:02:26;17.80;99.90
56240;DHT22;42154;51.992;5.896;2022-07-30T06:05:13;17.80;99.90
56240;DHT22;42154;51.992;5.896;2022-07-30T06:07:41;17.90;99.90
56240;DHT22;42154;51.992;5.896;2022-07-30T06:10:07;17.90;99.90
56240;DHT22;42154;51.992;5.896;2022-07-30T06:12:33;17.90;99.90
56240;DHT22;42154;51.992;5.896;2022-07-30T06:15:00;18.00;99.90
56240;DHT22;42154;51.992;5.896;2022-07-30T06:17:29;18.00;99.90
56240;DHT22;42154;51.992;5.896;2022-07-30T06:20:07;18.00;99.90
56240;DHT22;42154;51.992;5.896;2022-07-30T06:22:45;18.00;99.90
56240;DHT22;42154;51.992;5.896;2022-07-30T06:25:19;18.10;99.90
56240;DHT22;42154;51.992;5.896;2022-07-30T06:27:45;18.10;99.90
56240;DHT22;42154;51.992;5.896;2022-07-30T06:30:10;18.20;99.90
56240;DHT22;42154;51.992;5.896;2022-07-30T06:32:36;18.20;99.90
56240;DHT22;42154;51.992;5.896;2022-07-30T06:35:03;18.30;99.90
56240;DHT22;42154;51.992;5.896;2022-07-30T06:37:28;18.30;99.90
56240;DHT22;42154;51.992;5.896;2022-07-30T06:39:54;18.40;99.90
56240;DHT22;42154;51.992;5.896;2022-07-30T06:42:40;18.40;99.90
56240;DHT22;42154;51.992;5.896;2022-07-30T06:45:28;18.50;99.90
56240;DHT22;42154;51.992;5.896;2022-07-30T06:48:32;18.60;99.70
56240;DHT22;42154;51.992;5.896;2022-07-30T06:51:00;18.60;99.50
56240;DHT22;42154;51.992;5.896;2022-07-30T06:53:27;18.60;99.30
56240;DHT22;42154;51.992;5.896;2022-07-30T06:56:11;18.60;99.20
56240;DHT22;42154;51.992;5.896;2022-07-30T06:58:43;18.70;99.30
56240;DHT22;42154;51.992;5.896;2022-07-30T07:01:35;18.70;99.20
56240;DHT22;42154;51.992;5.896;2022-07-30T07:04:01;18.80;99.00
56240;DHT22;42154;51.992;5.896;2022-07-30T07:06:27;18.90;98.90
56240;DHT22;42154;51.992;5.896;2022-07-30T07:08:53;18.90;98.70
56240;DHT22;42154;51.992;5.896;2022-07-30T07:11:26;19.00;98.70
56240;DHT22;42154;51.992;5.896;2022-07-30T07:13:54;19.00;98.50
56240;DHT22;42154;51.992;5.896;2022-07-30T07:16:30;19.00;98.20
56240;DHT22;42154;51.992;5.896;2022-07-30T07:18:57;19.20;97.90
56240;DHT22;42154;51.992;5.896;2022-07-30T07:21:22;19.20;97.70
56240;DHT22;42154;51.992;5.896;2022-07-30T07:23:50;19.20;97.50
56240;DHT22;42154;51.992;5.896;2022-07-30T07:26:34;19.20;97.50
56240;DHT22;42154;51.992;5.896;2022-07-30T07:29:01;19.30;97.30
56240;DHT22;42154;51.992;5.896;2022-07-30T07:31:26;19.30;97.10
56240;DHT22;42154;51.992;5.896;2022-07-30T07:33:53;19.50;97.10
56240;DHT22;42154;51.992;5.896;2022-07-30T07:36:19;19.50;96.70
56240;DHT22;42154;51.992;5.896;2022-07-30T07:38:45;19.50;96.20
56240;DHT22;42154;51.992;5.896;2022-07-30T07:41:10;19.40;96.10
56240;DHT22;42154;51.992;5.896;2022-07-30T07:43:36;19.40;96.40
56240;DHT22;42154;51.992;5.896;2022-07-30T07:46:02;19.50;96.50
56240;DHT22;42154;51.992;5.896;2022-07-30T07:48:30;19.50;95.70
56240;DHT22;42154;51.992;5.896;2022-07-30T07:51:05;19.60;95.30
56240;DHT22;42154;51.992;5.896;2022-07-30T07:53:32;19.70;95.30
56240;DHT22;42154;51.992;5.896;2022-07-30T07:55:57;19.80;95.40
56240;DHT22;42154;51.992;5.896;2022-07-30T07:58:24;19.80;94.50
56240;DHT22;42154;51.992;5.896;2022-07-30T08:00:49;19.90;94.60
56240;DHT22;42154;51.992;5.896;2022-07-30T08:03:17;19.90;94.80
56240;DHT22;42154;51.992;5.896;2022-07-30T08:05:43;19.90;94.60
56240;DHT22;42154;51.992;5.896;2022-07-30T08:08:20;20.00;94.50
56240;DHT22;42154;51.992;5.896;2022-07-30T08:11:05;20.10;94.60
56240;DHT22;42154;51.992;5.896;2022-07-30T08:14:03;20.20;94.10
56240;DHT22;42154;51.992;5.896;2022-07-30T08:16:52;20.30;94.00
56240;DHT22;42154;51.992;5.896;2022-07-30T08:19:25;20.40;93.30
56240;DHT22;42154;51.992;5.896;2022-07-30T08:22:06;20.40;92.10
56240;DHT22;42154;51.992;5.896;2022-07-30T08:24:32;20.40;92.60
56240;DHT22;42154;51.992;5.896;2022-07-30T08:26:57;20.40;92.50
56240;DHT22;42154;51.992;5.896;2022-07-30T08:29:23;20.40;92.30
56240;DHT22;42154;51.992;5.896;2022-07-30T08:31:49;20.50;92.40
56240;DHT22;42154;51.992;5.896;2022-07-30T08:34:15;20.50;92.40
56240;DHT22;42154;51.992;5.896;2022-07-30T08:36:41;20.60;92.60
56240;DHT22;42154;51.992;5.896;2022-07-30T08:39:06;20.60;92.70
56240;DHT22;42154;51.992;5.896;2022-07-30T08:41:34;20.70;92.60
56240;DHT22;42154;51.992;5.896;2022-07-30T08:44:00;20.70;92.40
56240;DHT22;42154;51.992;5.896;2022-07-30T08:46:28;20.80;92.30
56240;DHT22;42154;51.992;5.896;2022-07-30T08:49:05;20.90;91.80
56240;DHT22;42154;51.992;5.896;2022-07-30T08:51:33;20.90;91.10
56240;DHT22;42154;51.992;5.896;2022-07-30T08:54:34;20.90;90.90
56240;DHT22;42154;51.992;5.896;2022-07-30T08:57:00;21.00;90.10
56240;DHT22;42154;51.992;5.896;2022-07-30T08:59:27;21.00;90.40
56240;DHT22;42154;51.992;5.896;2022-07-30T09:01:52;21.10;90.60
56240;DHT22;42154;51.992;5.896;2022-07-30T09:04:18;21.10;90.60
56240;DHT22;42154;51.992;5.896;2022-07-30T09:06:45;21.20;90.60
56240;DHT22;42154;51.992;5.896;2022-07-30T09:09:11;21.20;89.90
56240;DHT22;42154;51.992;5.896;2022-07-30T09:11:39;21.20;89.90
56240;DHT22;42154;51.992;5.896;2022-07-30T09:14:09;21.30;89.10
56240;DHT22;42154;51.992;5.896;2022-07-30T09:16:35;21.30;88.60
56240;DHT22;42154;51.992;5.896;2022-07-30T09:19:15;21.40;87.20
56240;DHT22;42154;51.992;5.896;2022-07-30T09:21:41;21.50;87.00
56240;DHT22;42154;51.992;5.896;2022-07-30T09:24:20;21.60;86.00
56240;DHT22;42154;51.992;5.896;2022-07-30T09:26:53;21.60;86.20
56240;DHT22;42154;51.992;5.896;2022-07-30T09:29:38;21.70;86.90
56240;DHT22;42154;51.992;5.896;2022-07-30T09:32:22;21.80;86.60
56240;DHT22;42154;51.992;5.896;2022-07-30T09:35:17;21.90;84.10
56240;DHT22;42154;51.992;5.896;2022-07-30T09:38:02;21.90;83.60
56240;DHT22;42154;51.992;5.896;2022-07-30T09:41:07;22.00;82.10
56240;DHT22;42154;51.992;5.896;2022-07-30T09:43:45;22.00;83.20
56240;DHT22;42154;51.992;5.896;2022-07-30T09:46:19;22.00;83.20
56240;DHT22;42154;51.992;5.896;2022-07-30T09:48:45;22.10;83.60
56240;DHT22;42154;51.992;5.896;2022-07-30T09:51:11;22.20;84.00
56240;DHT22;42154;51.992;5.896;2022-07-30T09:53:53;22.20;84.60
56240;DHT22;42154;51.992;5.896;2022-07-30T09:56:23;22.30;84.30
56240;DHT22;42154;51.992;5.896;2022-07-30T09:58:49;22.30;82.60
56240;DHT22;42154;51.992;5.896;2022-07-30T10:01:17;22.30;81.30
56240;DHT22;42154;51.992;5.896;2022-07-30T10:04:21;22.30;81.50
56240;DHT22;42154;51.992;5.896;2022-07-30T10:06:59;22.40;81.90
56240;DHT22;42154;51.992;5.896;2022-07-30T10:09:39;22.40;82.50
56240;DHT22;42154;51.992;5.896;2022-07-30T10:12:10;22.50;82.80
56240;DHT22;42154;51.992;5.896;2022-07-30T10:14:42;22.70;83.00
56240;DHT22;42154;51.992;5.896;2022-07-30T10:17:08;22.70;81.30
56240;DHT22;42154;51.992;5.896;2022-07-30T10:19:34;22.70;77.60
56240;DHT22;42154;51.992;5.896;2022-07-30T10:22:19;22.70;77.90
56240;DHT22;42154;51.992;5.896;2022-07-30T10:25:03;22.80;76.70
56240;DHT22;42154;51.992;5.896;2022-07-30T10:27:52;22.80;76.50
56240;DHT22;42154;51.992;5.896;2022-07-30T10:30:29;22.90;77.60
56240;DHT22;42154;51.992;5.896;2022-07-30T10:32:55;23.00;76.20
56240;DHT22;42154;51.992;5.896;2022-07-30T10:35:21;23.00;76.40
56240;DHT22;42154;51.992;5.896;2022-07-30T10:37:47;23.10;76.80
56240;DHT22;42154;51.992;5.896;2022-07-30T10:45:14;23.40;74.90
56240;DHT22;42154;51.992;5.896;2022-07-30T10:47:41;23.40;75.40
56240;DHT22;42154;51.992;5.896;2022-07-30T10:50:08;23.40;75.50
56240;DHT22;42154;51.992;5.896;2022-07-30T10:52:53;23.40;75.20
56240;DHT22;42154;51.992;5.896;2022-07-30T10:55:21;23.40;73.70
56240;DHT22;42154;51.992;5.896;2022-07-30T10:58:30;23.50;73.50
56240;DHT22;42154;51.992;5.896;2022-07-30T11:03:12;23.70;71.60
56240;DHT22;42154;51.992;5.896;2022-07-30T11:05:38;23.80;71.80
56240;DHT22;42154;51.992;5.896;2022-07-30T11:10:49;23.80;69.90
56240;DHT22;42154;51.992;5.896;2022-07-30T11:13:15;23.90;71.60
56240;DHT22;42154;51.992;5.896;2022-07-30T11:15:56;23.90;71.90
56240;DHT22;42154;51.992;5.896;2022-07-30T11:18:23;24.00;72.10
56240;DHT22;42154;51.992;5.896;2022-07-30T11:23:37;24.10;72.30
56240;DHT22;42154;51.992;5.896;2022-07-30T11:26:03;24.20;72.10
56240;DHT22;42154;51.992;5.896;2022-07-30T11:28:32;24.20;71.50
56240;DHT22;42154;51.992;5.896;2022-07-30T11:30:58;24.20;71.10
56240;DHT22;42154;51.992;5.896;2022-07-30T11:33:24;24.20;70.00
56240;DHT22;42154;51.992;5.896;2022-07-30T11:36:09;24.20;70.80
56240;DHT22;42154;51.992;5.896;2022-07-30T11:38:51;24.30;71.30
56240;DHT22;42154;51.992;5.896;2022-07-30T11:41:17;24.40;71.60
56240;DHT22;42154;51.992;5.896;2022-07-30T11:43:42;24.50;71.40
56240;DHT22;42154;51.992;5.896;2022-07-30T11:46:12;24.60;71.00
56240;DHT22;42154;51.992;5.896;2022-07-30T11:48:39;24.60;71.50
56240;DHT22;42154;51.992;5.896;2022-07-30T11:51:05;24.60;70.50
56240;DHT22;42154;51.992;5.896;2022-07-30T11:53:30;24.60;70.70
56240;DHT22;42154;51.992;5.896;2022-07-30T11:55:57;24.60;70.50
56240;DHT22;42154;51.992;5.896;2022-07-30T11:58:24;24.70;70.60
56240;DHT22;42154;51.992;5.896;2022-07-30T12:00:51;24.70;70.40
56240;DHT22;42154;51.992;5.896;2022-07-30T12:03:17;24.80;70.90
56240;DHT22;42154;51.992;5.896;2022-07-30T12:05:43;24.80;70.80
56240;DHT22;42154;51.992;5.896;2022-07-30T12:08:09;25.00;70.60
56240;DHT22;42154;51.992;5.896;2022-07-30T12:10:35;25.10;70.40
56240;DHT22;42154;51.992;5.896;2022-07-30T12:15:33;25.40;70.80
56240;DHT22;42154;51.992;5.896;2022-07-30T12:17:59;25.70;71.10
56240;DHT22;42154;51.992;5.896;2022-07-30T12:20:28;25.80;70.40
56240;DHT22;42154;51.992;5.896;2022-07-30T12:22:54;26.00;70.50
56240;DHT22;42154;51.992;5.896;2022-07-30T12:25:21;26.30;69.30
56240;DHT22;42154;51.992;5.896;2022-07-30T12:27:47;26.40;68.10
56240;DHT22;42154;51.992;5.896;2022-07-30T12:30:14;26.40;68.50
56240;DHT22;42154;51.992;5.896;2022-07-30T12:32:40;26.50;68.80
56240;DHT22;42154;51.992;5.896;2022-07-30T12:35:07;26.70;68.20
56240;DHT22;42154;51.992;5.896;2022-07-30T12:37:32;26.70;66.80
56240;DHT22;42154;51.992;5.896;2022-07-30T12:42:33;26.70;66.90
56240;DHT22;42154;51.992;5.896;2022-07-30T12:45:01;26.60;66.90
56240;DHT22;42154;51.992;5.896;2022-07-30T12:47:27;26.60;67.10
56240;DHT22;42154;51.992;5.896;2022-07-30T12:49:54;26.60;65.80
56240;DHT22;42154;51.992;5.896;2022-07-30T12:52:27;26.50;65.60
56240;DHT22;42154;51.992;5.896;2022-07-30T12:54:56;26.40;66.30
56240;DHT22;42154;51.992;5.896;2022-07-30T12:57:22;26.40;66.60
56240;DHT22;42154;51.992;5.896;2022-07-30T12:59:58;26.50;65.50
56240;DHT22;42154;51.992;5.896;2022-07-30T13:02:31;26.60;64.80
56240;DHT22;42154;51.992;5.896;2022-07-30T13:04:57;26.60;63.20
56240;DHT22;42154;51.992;5.896;2022-07-30T13:07:23;26.60;64.90
56240;DHT22;42154;51.992;5.896;2022-07-30T13:10:04;26.70;64.70
56240;DHT22;42154;51.992;5.896;2022-07-30T13:12:30;26.90;65.00
56240;DHT22;42154;51.992;5.896;2022-07-30T13:14:55;27.10;63.80
56240;DHT22;42154;51.992;5.896;2022-07-30T13:17:21;27.20;63.90
56240;DHT22;42154;51.992;5.896;2022-07-30T13:19:47;27.30;62.70
56240;DHT22;42154;51.992;5.896;2022-07-30T13:22:12;27.30;63.40
56240;DHT22;42154;51.992;5.896;2022-07-30T13:24:38;27.20;62.50
56240;DHT22;42154;51.992;5.896;2022-07-30T13:27:03;27.00;62.90
56240;DHT22;42154;51.992;5.896;2022-07-30T13:29:29;27.00;63.60
56240;DHT22;42154;51.992;5.896;2022-07-30T13:31:55;27.00;63.50
56240;DHT22;42154;51.992;5.896;2022-07-30T13:34:20;26.90;64.10
56240;DHT22;42154;51.992;5.896;2022-07-30T13:36:46;26.90;64.00
56240;DHT22;42154;51.992;5.896;2022-07-30T13:39:12;27.00;63.70
56240;DHT22;42154;51.992;5.896;2022-07-30T13:41:37;27.00;63.60
56240;DHT22;42154;51.992;5.896;2022-07-30T13:44:06;27.00;63.90
56240;DHT22;42154;51.992;5.896;2022-07-30T13:46:31;27.10;63.40
56240;DHT22;42154;51.992;5.896;2022-07-30T13:48:58;27.20;63.40
56240;DHT22;42154;51.992;5.896;2022-07-30T13:51:23;27.20;62.80
56240;DHT22;42154;51.992;5.896;2022-07-30T13:53:49;27.30;61.80
56240;DHT22;42154;51.992;5.896;2022-07-30T13:56:15;27.30;62.20
56240;DHT22;42154;51.992;5.896;2022-07-30T13:58:41;27.50;61.70
56240;DHT22;42154;51.992;5.896;2022-07-30T14:01:07;27.60;62.00
56240;DHT22;42154;51.992;5.896;2022-07-30T14:03:32;27.80;59.80
56240;DHT22;42154;51.992;5.896;2022-07-30T14:05:58;27.70;59.50
56240;DHT22;42154;51.992;5.896;2022-07-30T14:08:23;27.60;60.30
56240;DHT22;42154;51.992;5.896;2022-07-30T14:10:49;27.80;60.60
56240;DHT22;42154;51.992;5.896;2022-07-30T14:13:15;28.00;60.50
56240;DHT22;42154;51.992;5.896;2022-07-30T14:15:41;28.10;59.70
56240;DHT22;42154;51.992;5.896;2022-07-30T14:18:06;28.00;58.70
56240;DHT22;42154;51.992;5.896;2022-07-30T14:20:32;28.00;59.40
56240;DHT22;42154;51.992;5.896;2022-07-30T14:22:58;28.20;59.90
56240;DHT22;42154;51.992;5.896;2022-07-30T14:25:23;28.30;59.70
56240;DHT22;42154;51.992;5.896;2022-07-30T14:27:49;28.30;59.20
56240;DHT22;42154;51.992;5.896;2022-07-30T14:30:15;28.20;58.40
56240;DHT22;42154;51.992;5.896;2022-07-30T14:32:40;28.00;57.40
56240;DHT22;42154;51.992;5.896;2022-07-30T14:35:06;27.90;57.90
56240;DHT22;42154;51.992;5.896;2022-07-30T14:37:36;27.90;58.50
56240;DHT22;42154;51.992;5.896;2022-07-30T14:40:03;27.70;58.50
56240;DHT22;42154;51.992;5.896;2022-07-30T14:42:29;27.60;59.20
56240;DHT22;42154;51.992;5.896;2022-07-30T14:44:55;27.60;59.50
56240;DHT22;42154;51.992;5.896;2022-07-30T14:47:21;27.50;59.00
56240;DHT22;42154;51.992;5.896;2022-07-30T14:49:46;27.50;59.40
56240;DHT22;42154;51.992;5.896;2022-07-30T14:52:12;27.60;59.30
56240;DHT22;42154;51.992;5.896;2022-07-30T14:54:38;27.60;59.10
56240;DHT22;42154;51.992;5.896;2022-07-30T14:57:03;27.80;59.40
56240;DHT22;42154;51.992;5.896;2022-07-30T14:59:32;27.90;59.10
56240;DHT22;42154;51.992;5.896;2022-07-30T15:01:58;28.00;58.40
56240;DHT22;42154;51.992;5.896;2022-07-30T15:04:24;27.90;58.80
56240;DHT22;42154;51.992;5.896;2022-07-30T15:06:50;27.80;59.00
56240;DHT22;42154;51.992;5.896;2022-07-30T15:09:15;27.80;59.10
56240;DHT22;42154;51.992;5.896;2022-07-30T15:11:41;27.70;59.00
56240;DHT22;42154;51.992;5.896;2022-07-30T15:14:07;27.60;58.50
56240;DHT22;42154;51.992;5.896;2022-07-30T15:16:32;27.40;58.50
56240;DHT22;42154;51.992;5.896;2022-07-30T15:18:58;27.20;58.90
56240;DHT22;42154;51.992;5.896;2022-07-30T15:21:23;27.10;59.40
56240;DHT22;42154;51.992;5.896;2022-07-30T15:23:49;27.00;59.80
56240;DHT22;42154;51.992;5.896;2022-07-30T15:26:15;27.00;59.70
56240;DHT22;42154;51.992;5.896;2022-07-30T15:28:41;27.10;59.90
56240;DHT22;42154;51.992;5.896;2022-07-30T15:31:06;27.10;60.10
56240;DHT22;42154;51.992;5.896;2022-07-30T15:33:32;27.10;60.10
56240;DHT22;42154;51.992;5.896;2022-07-30T15:35:57;27.10;60.50
56240;DHT22;42154;51.992;5.896;2022-07-30T15:38:23;27.20;60.60
56240;DHT22;42154;51.992;5.896;2022-07-30T15:40:49;27.30;60.30
56240;DHT22;42154;51.992;5.896;2022-07-30T15:43:14;27.30;60.30
56240;DHT22;42154;51.992;5.896;2022-07-30T15:45:40;27.30;60.60
56240;DHT22;42154;51.992;5.896;2022-07-30T15:48:07;27.40;60.40
56240;DHT22;42154;51.992;5.896;2022-07-30T15:50:32;27.30;60.40
56240;DHT22;42154;51.992;5.896;2022-07-30T15:52:58;27.30;60.20
56240;DHT22;42154;51.992;5.896;2022-07-30T15:55:23;27.20;60.30
56240;DHT22;42154;51.992;5.896;2022-07-30T15:57:49;27.10;60.20
56240;DHT22;42154;51.992;5.896;2022-07-30T16:00:15;27.00;60.70